Time;durP1;ratioP1;P1;durP2;ratioP2;P2;SDS_P1;SDS_P2;PMS_P1;PMS_P2;Temp;Humidity;BMP_temperature;BMP_pressure;BME280_temperature;BME280_humidity;BME280_pressure;Samples;Min_cycle;Max_cycle;Signal;HPM_P1;HPM_P2
2023/12/04 00:00:02;;;;;;;17.33;6.93;;;-12.60;38.80;;;;;;4951058;28;46667;-72
2023/12/04 00:02:28;;;;;;;21.52;7.40;;;-12.50;38.80;;;;;;4955160;28;46362;-72
2023/12/04 00:04:54;;;;;;;16.70;6.27;;;-12.40;37.70;;;;;;4953678;28;46034;-72
2023/12/04 00:07:19;;;;;;;14.23;6.40;;;-12.40;38.80;;;;;;4960566;28;46379;-72
2023/12/04 00:09:45;;;;;;;25.87;9.57;;;-12.40;38.70;;;;;;4953357;28;46604;-72
2023/12/04 00:12:10;;;;;;;31.67;11.83;;;-12.40;38.90;;;;;;4949384;28;46410;-72
2023/12/04 00:14:36;;;;;;;31.10;12.00;;;-12.40;37.90;;;;;;4957244;28;46497;-72
2023/12/04 00:17:01;;;;;;;38.60;12.20;;;-12.40;38.90;;;;;;4945830;28;46728;-72
2023/12/04 00:19:27;;;;;;;20.47;9.10;;;-12.30;39.00;;;;;;4959884;28;48353;-72
2023/12/04 00:21:53;;;;;;;30.33;10.80;;;-12.30;39.00;;;;;;4962044;28;46390;-72
2023/12/04 00:24:18;;;;;;;22.60;8.63;;;-12.30;39.00;;;;;;4961510;28;46429;-72
2023/12/04 00:26:44;;;;;;;32.50;10.77;;;-12.30;39.00;;;;;;4951910;28;46779;-71
2023/12/04 00:29:09;;;;;;;27.33;8.50;;;-12.40;39.00;;;;;;4953252;28;46418;-72
2023/12/04 00:31:35;;;;;;;28.90;8.80;;;-12.40;39.20;;;;;;4961438;28;46403;-72
2023/12/04 00:34:00;;;;;;;27.87;9.30;;;-12.40;39.20;;;;;;4944009;28;46201;-71
2023/12/04 00:36:27;;;;;;;21.20;9.17;;;-12.40;39.20;;;;;;4955630;28;46727;-72
2023/12/04 00:38:52;;;;;;;18.33;8.20;;;-12.40;39.10;;;;;;4953207;28;46486;-72
2023/12/04 00:41:18;;;;;;;25.40;8.80;;;-12.30;39.40;;;;;;4957134;28;45818;-72
2023/12/04 00:43:43;;;;;;;30.43;9.40;;;-12.20;39.30;;;;;;4942679;28;46480;-72
2023/12/04 00:46:09;;;;;;;19.03;8.03;;;-12.10;39.20;;;;;;4951517;28;46378;-70
2023/12/04 00:48:35;;;;;;;31.93;8.50;;;-12.00;39.00;;;;;;4959616;28;46124;-71
2023/12/04 00:51:00;;;;;;;16.33;7.20;;;-11.90;39.00;;;;;;4949421;28;46477;-72
2023/12/04 00:53:26;;;;;;;25.07;7.17;;;-11.80;39.00;;;;;;4953188;28;46408;-72
2023/12/04 00:55:51;;;;;;;20.70;7.57;;;-11.70;39.00;;;;;;4954236;28;47003;-71
2023/12/04 00:58:17;;;;;;;21.63;8.73;;;-11.60;38.90;;;;;;4949893;28;46330;-71
2023/12/04 01:00:42;;;;;;;21.17;8.27;;;-11.60;39.00;;;;;;4953373;28;46413;-72
2023/12/04 01:03:08;;;;;;;21.53;8.07;;;-11.50;38.90;;;;;;4958196;28;46504;-71
2023/12/04 01:05:34;;;;;;;16.43;8.00;;;-11.40;39.00;;;;;;4940371;28;45942;-72
2023/12/04 01:07:59;;;;;;;43.97;8.77;;;-11.40;39.10;;;;;;4959085;28;46436;-72
2023/12/04 01:10:25;;;;;;;28.53;8.10;;;-11.40;39.20;;;;;;4959637;28;46743;-72
2023/12/04 01:12:50;;;;;;;58.70;12.93;;;-11.40;39.20;;;;;;4950978;28;46385;-72
2023/12/04 01:15:16;;;;;;;20.47;8.83;;;-11.40;39.40;;;;;;4958139;28;46504;-71
2023/12/04 01:17:42;;;;;;;17.23;7.47;;;-11.40;39.60;;;;;;4954630;28;46647;-71
2023/12/04 01:20:08;;;;;;;18.73;7.70;;;-11.50;39.70;;;;;;4960325;28;46607;-71
2023/12/04 01:22:33;;;;;;;16.87;7.90;;;-11.50;40.00;;;;;;4960543;28;46311;-71
2023/12/04 01:24:59;;;;;;;20.80;7.67;;;-11.60;40.80;;;;;;4951472;28;46714;-71
2023/12/04 01:27:24;;;;;;;17.53;6.57;;;-11.70;40.50;;;;;;4960503;28;47223;-71
2023/12/04 01:29:50;;;;;;;13.83;7.13;;;-11.80;40.70;;;;;;4954242;28;46400;-73
2023/12/04 01:32:15;;;;;;;15.33;7.60;;;-11.90;41.00;;;;;;4944625;28;46310;-71
2023/12/04 01:34:41;;;;;;;13.93;7.87;;;-12.20;40.30;;;;;;4958401;28;45777;-71
2023/12/04 01:37:06;;;;;;;14.43;6.43;;;-12.20;41.50;;;;;;4953954;28;47096;-70
2023/12/04 01:39:32;;;;;;;19.60;8.50;;;-12.30;41.60;;;;;;4958305;28;46505;-71
2023/12/04 01:41:57;;;;;;;14.20;6.70;;;-12.40;41.60;;;;;;4952637;28;46485;-71
2023/12/04 01:44:24;;;;;;;13.37;6.63;;;-12.50;41.80;;;;;;4950836;28;46410;-72
2023/12/04 01:46:50;;;;;;;16.80;6.68;;;-12.60;41.80;;;;;;4954854;28;46369;-72
2023/12/04 01:49:15;;;;;;;16.93;7.57;;;-12.70;41.80;;;;;;4952843;28;46389;-72
2023/12/04 01:51:42;;;;;;;24.33;9.60;;;-13.00;41.80;;;;;;4953218;28;46470;-71
2023/12/04 01:54:08;;;;;;;27.65;7.95;;;-13.20;42.00;;;;;;4960706;28;45966;-72
2023/12/04 01:56:36;;;;;;;14.93;7.87;;;-13.30;42.30;;;;;;4957846;28;46398;-71
2023/12/04 01:59:01;;;;;;;20.48;8.85;;;-13.60;42.50;;;;;;4964222;28;46924;-71
2023/12/04 02:01:28;;;;;;;21.67;7.87;;;-13.80;42.50;;;;;;4960354;28;46508;-72
2023/12/04 02:03:54;;;;;;;26.00;7.60;;;-13.90;42.60;;;;;;4953276;28;46448;-70
2023/12/04 02:06:20;;;;;;;22.05;8.30;;;-14.00;42.60;;;;;;4944823;28;46382;-71
2023/12/04 02:08:47;;;;;;;16.75;8.13;;;-14.20;42.50;;;;;;4945074;28;46430;-71
2023/12/04 02:11:13;;;;;;;13.98;6.35;;;-14.20;42.40;;;;;;4955064;28;46769;-71
2023/12/04 02:13:39;;;;;;;11.97;6.13;;;-14.20;42.20;;;;;;4949438;28;46102;-71
2023/12/04 02:16:08;;;;;;;14.43;5.32;;;-14.20;42.20;;;;;;4953476;28;46387;-71
2023/12/04 02:18:34;;;;;;;9.52;5.05;;;-14.10;42.10;;;;;;4950123;28;46587;-72
2023/12/04 02:21:03;;;;;;;12.97;6.17;;;-14.10;41.70;;;;;;4949264;28;46451;-71
2023/12/04 02:23:29;;;;;;;13.27;5.75;;;-14.00;41.60;;;;;;4964189;28;46546;-71
2023/12/04 02:26:12;;;;;;;16.37;5.97;;;-14.00;41.30;;;;;;4964070;28;46402;-71
2023/12/04 02:28:39;;;;;;;17.48;6.35;;;-13.90;41.10;;;;;;4955961;28;46325;-71
2023/12/04 02:31:06;;;;;;;12.68;5.70;;;-13.90;41.10;;;;;;4946743;28;46305;-71
2023/12/04 02:33:34;;;;;;;14.30;5.65;;;-13.90;40.90;;;;;;4964452;28;46428;-71
2023/12/04 02:36:02;;;;;;;15.35;6.90;;;-13.80;40.90;;;;;;4963900;28;46157;-71
2023/12/04 02:38:28;;;;;;;20.55;6.40;;;-13.90;40.80;;;;;;4959022;28;46626;-71
2023/12/04 02:40:55;;;;;;;17.45;6.55;;;-13.90;40.80;;;;;;4944804;28;46390;-71
2023/12/04 02:43:20;;;;;;;15.23;6.28;;;-13.90;40.70;;;;;;4944941;28;46460;-71
2023/12/04 02:45:46;;;;;;;16.77;6.37;;;-13.90;40.70;;;;;;4950623;28;46140;-71
2023/12/04 02:48:11;;;;;;;11.60;5.50;;;-13.90;40.70;;;;;;4953481;28;46517;-71
2023/12/04 02:50:37;;;;;;;11.33;5.30;;;-13.90;40.60;;;;;;4957890;28;46420;-71
2023/12/04 02:53:02;;;;;;;15.60;7.53;;;-13.90;40.50;;;;;;4953341;28;46439;-71
2023/12/04 02:55:28;;;;;;;16.97;7.17;;;-13.80;40.40;;;;;;4943326;28;46410;-72
2023/12/04 02:57:54;;;;;;;11.80;6.18;;;-13.70;40.50;;;;;;4944145;28;46825;-71
2023/12/04 03:00:19;;;;;;;14.00;6.80;;;-13.70;40.40;;;;;;4963774;28;46752;-71
2023/12/04 03:02:45;;;;;;;19.30;7.77;;;-13.70;40.50;;;;;;4962753;28;46339;-71
2023/12/04 03:05:11;;;;;;;26.30;9.60;;;-13.70;40.70;;;;;;4963185;28;46470;-71
2023/12/04 03:07:36;;;;;;;24.40;8.17;;;-13.90;40.60;;;;;;4963588;28;45841;-71
2023/12/04 03:10:02;;;;;;;16.37;7.00;;;-13.90;40.70;;;;;;4954591;28;46631;-71
2023/12/04 03:12:27;;;;;;;14.60;6.90;;;-13.90;40.60;;;;;;4955834;28;46388;-71
2023/12/04 03:14:53;;;;;;;15.60;7.27;;;-13.90;39.40;;;;;;4963137;28;46343;-71
2023/12/04 03:17:18;;;;;;;23.17;8.60;;;-13.90;40.50;;;;;;4960339;28;46564;-71
2023/12/04 03:19:44;;;;;;;23.07;10.67;;;-13.90;40.50;;;;;;4947223;28;46398;-71
2023/12/04 03:22:10;;;;;;;34.40;10.97;;;-14.00;40.50;;;;;;4952591;28;46442;-71
2023/12/04 03:24:35;;;;;;;18.80;8.33;;;-14.10;40.60;;;;;;4948730;28;46363;-71
2023/12/04 03:27:01;;;;;;;27.43;8.40;;;-14.20;40.40;;;;;;4949483;28;46424;-71
2023/12/04 03:29:26;;;;;;;22.90;7.73;;;-14.20;40.50;;;;;;4963142;28;46381;-72
2023/12/04 03:31:52;;;;;;;21.10;8.10;;;-14.20;40.50;;;;;;4963255;28;46692;-71
2023/12/04 03:34:17;;;;;;;17.67;7.00;;;-14.20;40.50;;;;;;4946923;28;46666;-71
2023/12/04 03:36:43;;;;;;;12.43;6.10;;;-14.10;40.30;;;;;;4949087;28;46791;-71
2023/12/04 03:39:08;;;;;;;17.33;6.57;;;-14.10;40.10;;;;;;4959219;28;45948;-71
2023/12/04 03:41:34;;;;;;;20.20;7.60;;;-14.00;40.00;;;;;;4963229;28;46354;-71
2023/12/04 03:43:59;;;;;;;24.27;7.00;;;-14.00;39.80;;;;;;4947535;28;46441;-71
2023/12/04 03:46:25;;;;;;;17.90;6.90;;;-14.00;39.60;;;;;;4962436;28;46425;-71
2023/12/04 03:48:51;;;;;;;18.48;7.57;;;-13.90;39.80;;;;;;4963143;28;46385;-71
2023/12/04 03:51:16;;;;;;;20.17;6.57;;;-14.00;39.70;;;;;;4951424;28;46485;-71
2023/12/04 03:53:42;;;;;;;19.70;6.63;;;-13.90;39.60;;;;;;4956692;28;47203;-71
2023/12/04 03:56:08;;;;;;;19.63;7.80;;;-13.90;39.50;;;;;;4962768;28;46356;-71
2023/12/04 03:58:34;;;;;;;16.95;8.48;;;-14.00;39.40;;;;;;4963026;28;46389;-71
2023/12/04 04:01:00;;;;;;;26.50;8.10;;;-14.10;39.50;;;;;;4955311;28;46534;-71
2023/12/04 04:03:25;;;;;;;19.03;7.70;;;-14.20;39.50;;;;;;4962489;28;46397;-71
2023/12/04 04:05:51;;;;;;;18.30;8.17;;;-14.10;39.70;;;;;;4961802;28;45884;-71
2023/12/04 04:08:16;;;;;;;19.57;7.20;;;-14.10;39.60;;;;;;4951609;28;45766;-71
2023/12/04 04:10:43;;;;;;;18.08;6.88;;;-14.00;39.40;;;;;;4957176;28;46596;-71
2023/12/04 04:13:09;;;;;;;7.53;3.95;;;-13.90;39.30;;;;;;4951058;28;46543;-71
2023/12/04 04:15:34;;;;;;;12.57;5.03;;;-13.80;39.00;;;;;;4950652;28;46490;-71
2023/12/04 04:18:00;;;;;;;10.50;4.70;;;-13.60;38.90;;;;;;4962877;28;45994;-71
2023/12/04 04:20:25;;;;;;;12.77;4.77;;;-13.40;38.70;;;;;;4951142;28;47137;-71
2023/12/04 04:22:51;;;;;;;8.40;4.00;;;-13.30;38.30;;;;;;4948210;28;46457;-71
2023/12/04 04:25:18;;;;;;;17.02;4.60;;;-13.20;38.10;;;;;;4952843;28;46624;-71
2023/12/04 04:27:44;;;;;;;12.18;5.65;;;-13.10;37.90;;;;;;4962801;28;46397;-71
2023/12/04 04:30:10;;;;;;;9.83;4.50;;;-13.00;37.60;;;;;;4946479;28;46744;-71
2023/12/04 04:32:36;;;;;;;8.45;4.93;;;-12.90;37.50;;;;;;4954311;28;46407;-71
2023/12/04 04:35:02;;;;;;;9.30;5.10;;;-12.80;37.50;;;;;;4962013;28;46892;-71
2023/12/04 04:40:03;;;;;;;14.27;4.95;;;-11.80;38.40;;;;;;4722319;26;46344;-64
2023/12/04 04:42:29;;;;;;;10.40;5.22;;;-12.60;37.60;;;;;;4955862;28;48052;-64
2023/12/04 04:44:54;;;;;;;20.63;6.30;;;-12.60;37.70;;;;;;4954716;28;46398;-63
2023/12/04 04:47:20;;;;;;;14.47;6.00;;;-12.60;37.90;;;;;;4953174;28;46564;-63
2023/12/04 04:49:46;;;;;;;15.27;7.30;;;-12.60;38.20;;;;;;4955084;28;46672;-64
2023/12/04 04:52:11;;;;;;;15.60;6.93;;;-12.80;38.30;;;;;;4951294;28;47969;-64
2023/12/04 04:54:37;;;;;;;16.90;7.30;;;-12.80;38.70;;;;;;4955253;28;46512;-64
2023/12/04 04:57:03;;;;;;;13.83;6.50;;;-12.80;38.70;;;;;;4954989;28;46246;-64
2023/12/04 04:59:30;;;;;;;21.65;7.65;;;-12.80;37.90;;;;;;4957092;28;46674;-64
2023/12/04 05:01:56;;;;;;;17.27;7.28;;;-12.80;38.80;;;;;;4952883;28;46511;-64
2023/12/04 05:04:22;;;;;;;12.93;6.63;;;-12.90;38.90;;;;;;4954024;28;46841;-64
2023/12/04 05:06:48;;;;;;;16.17;7.10;;;-13.00;39.00;;;;;;4958022;28;45918;-64
2023/12/04 05:09:13;;;;;;;13.53;6.13;;;-13.10;39.20;;;;;;4955914;28;46581;-64
2023/12/04 05:11:39;;;;;;;15.13;5.50;;;-13.10;39.30;;;;;;4952979;28;48062;-63
2023/12/04 05:14:04;;;;;;;19.97;7.30;;;-13.10;39.30;;;;;;4954376;28;46419;-64
2023/12/04 05:16:30;;;;;;;13.03;5.50;;;-13.00;39.30;;;;;;4952930;28;46517;-64
2023/12/04 05:18:56;;;;;;;17.33;5.47;;;-12.90;39.10;;;;;;4956591;28;46556;-64
2023/12/04 05:21:21;;;;;;;18.70;7.60;;;-12.70;39.00;;;;;;4955882;28;46537;-64
2023/12/04 05:23:47;;;;;;;12.00;6.83;;;-12.90;38.80;;;;;;4957923;28;46508;-64
2023/12/04 05:26:13;;;;;;;13.77;6.50;;;-13.00;38.60;;;;;;4956385;28;46704;-65
2023/12/04 05:28:39;;;;;;;12.43;5.85;;;-12.90;38.80;;;;;;4959113;28;46482;-64
2023/12/04 05:31:05;;;;;;;10.10;5.27;;;-12.90;38.70;;;;;;4955888;28;48010;-64
2023/12/04 05:33:30;;;;;;;22.33;8.88;;;-12.80;38.60;;;;;;4952150;28;46682;-63
2023/12/04 05:35:56;;;;;;;19.87;9.33;;;-12.80;38.70;;;;;;4940492;28;46465;-66
2023/12/04 05:38:22;;;;;;;25.87;7.67;;;-12.80;38.70;;;;;;4958118;28;46482;-66
2023/12/04 05:40:48;;;;;;;18.90;5.97;;;-12.70;38.60;;;;;;4956722;28;48842;-66
2023/12/04 05:43:14;;;;;;;22.73;8.77;;;-12.60;38.30;;;;;;4958324;28;46440;-66
2023/12/04 05:45:40;;;;;;;14.93;7.30;;;-12.60;38.30;;;;;;4955358;28;46501;-67
2023/12/04 05:48:05;;;;;;;16.77;7.40;;;-12.60;38.20;;;;;;4957708;28;46620;-67
2023/12/04 05:50:31;;;;;;;13.23;6.87;;;-12.50;38.20;;;;;;4956272;28;46181;-66
2023/12/04 05:52:58;;;;;;;33.17;7.43;;;-12.50;38.20;;;;;;4955593;28;45904;-66
2023/12/04 05:55:24;;;;;;;13.95;6.22;;;-12.40;38.20;;;;;;4954437;28;46693;-66
2023/12/04 05:57:50;;;;;;;13.60;4.93;;;-12.40;38.20;;;;;;4955145;28;46662;-66
2023/12/04 06:00:15;;;;;;;13.67;6.37;;;-12.30;38.30;;;;;;4953171;28;49060;-67
2023/12/04 06:02:42;;;;;;;13.40;6.40;;;-12.30;38.40;;;;;;4955142;28;46425;-65
2023/12/04 06:05:09;;;;;;;16.20;7.55;;;-12.20;38.40;;;;;;4972843;28;46475;-65
2023/12/04 06:07:38;;;;;;;21.67;6.30;;;-12.10;38.20;;;;;;4973919;28;46403;-67
2023/12/04 06:10:04;;;;;;;21.80;8.63;;;-11.90;38.00;;;;;;4949871;28;46621;-65
2023/12/04 06:12:30;;;;;;;18.73;7.35;;;-11.80;37.90;;;;;;4955558;28;46473;-65
2023/12/04 06:14:58;;;;;;;20.00;8.73;;;-11.80;37.70;;;;;;4949755;28;46539;-65
2023/12/04 06:17:24;;;;;;;25.27;9.23;;;-11.70;37.90;;;;;;4972419;28;46404;-66
2023/12/04 06:19:49;;;;;;;21.80;7.88;;;-11.80;37.90;;;;;;4954119;28;46425;-66
2023/12/04 06:22:18;;;;;;;26.03;8.30;;;-11.80;38.20;;;;;;4952109;28;46529;-65
2023/12/04 06:24:44;;;;;;;15.65;7.03;;;-11.80;38.20;;;;;;4954985;28;46196;-65
2023/12/04 06:27:14;;;;;;;34.15;11.20;;;-11.70;38.20;;;;;;4956370;28;46056;-67
2023/12/04 06:29:40;;;;;;;29.88;8.32;;;-11.70;38.20;;;;;;4971189;28;46468;-66
2023/12/04 06:32:07;;;;;;;37.70;8.77;;;-11.60;37.90;;;;;;4957020;28;46692;-66
2023/12/04 06:34:33;;;;;;;29.67;8.23;;;-11.50;37.80;;;;;;4955715;28;47034;-67
2023/12/04 06:37:01;;;;;;;18.83;8.18;;;-11.50;37.60;;;;;;4954223;28;46768;-66
2023/12/04 06:39:32;;;;;;;21.75;9.35;;;-11.40;36.60;;;;;;4951873;28;48895;-67
2023/12/04 06:41:58;;;;;;;20.55;8.75;;;-11.40;37.70;;;;;;4969037;28;46655;-66
2023/12/04 06:44:24;;;;;;;22.60;9.00;;;-11.30;37.80;;;;;;4955944;28;46492;-67
2023/12/04 06:46:52;;;;;;;16.27;7.75;;;-11.30;37.90;;;;;;4954707;28;46473;-66
2023/12/04 06:49:18;;;;;;;23.73;8.35;;;-11.30;37.90;;;;;;4954621;28;47133;-66
2023/12/04 06:51:44;;;;;;;21.80;8.65;;;-11.20;37.80;;;;;;4953441;28;47660;-66
2023/12/04 06:54:11;;;;;;;28.20;9.23;;;-11.10;37.70;;;;;;4956247;28;46705;-67
2023/12/04 06:56:37;;;;;;;31.95;10.02;;;-11.00;37.50;;;;;;4955368;28;46489;-66
2023/12/04 06:59:04;;;;;;;17.95;8.10;;;-10.90;37.40;;;;;;4955606;28;47783;-66
2023/12/04 07:01:29;;;;;;;21.17;9.30;;;-10.80;37.20;;;;;;4955079;28;46726;-67
2023/12/04 07:03:55;;;;;;;24.43;10.70;;;-10.70;37.30;;;;;;4956222;28;46560;-65
2023/12/04 07:06:21;;;;;;;20.03;8.90;;;-10.70;37.20;;;;;;4954697;28;46456;-67
2023/12/04 07:08:47;;;;;;;16.97;8.23;;;-10.70;37.30;;;;;;4954697;28;47984;-67
2023/12/04 07:11:14;;;;;;;26.48;8.93;;;-10.70;37.60;;;;;;4955907;28;46467;-67
2023/12/04 07:13:43;;;;;;;27.20;8.60;;;-10.60;37.70;;;;;;4954127;28;46333;-67
2023/12/04 07:16:09;;;;;;;20.88;9.50;;;-10.60;37.50;;;;;;4951604;28;46412;-68
2023/12/04 07:18:34;;;;;;;20.73;9.77;;;-10.60;37.60;;;;;;4954738;28;48110;-66
2023/12/04 07:21:00;;;;;;;17.57;8.53;;;-10.50;37.70;;;;;;4956655;28;46709;-68
2023/12/04 07:23:26;;;;;;;24.05;8.95;;;-10.60;37.40;;;;;;4954462;28;46474;-67
2023/12/04 07:25:52;;;;;;;20.27;7.40;;;-10.70;37.70;;;;;;4955798;28;46392;-66
2023/12/04 07:28:18;;;;;;;22.48;8.93;;;-10.80;37.80;;;;;;4955178;28;46533;-67
2023/12/04 07:30:45;;;;;;;12.80;6.28;;;-10.80;37.90;;;;;;4954477;28;46578;-66
2023/12/04 07:33:10;;;;;;;13.90;6.50;;;-10.70;38.20;;;;;;4955804;28;45853;-67
2023/12/04 07:35:36;;;;;;;12.80;5.57;;;-10.70;38.20;;;;;;4956318;28;46773;-66
2023/12/04 07:38:03;;;;;;;11.50;4.77;;;-10.70;38.30;;;;;;4955318;28;47926;-67
2023/12/04 07:40:28;;;;;;;18.63;7.40;;;-10.60;38.50;;;;;;4955122;28;46802;-66
2023/12/04 07:42:54;;;;;;;12.60;5.67;;;-10.50;38.30;;;;;;4952539;28;46476;-67
2023/12/04 07:45:21;;;;;;;13.77;6.40;;;-10.40;38.30;;;;;;4954740;28;45873;-67
2023/12/04 07:47:46;;;;;;;13.75;6.03;;;-10.30;38.00;;;;;;4954320;28;47801;-67
2023/12/04 07:50:12;;;;;;;12.70;5.77;;;-10.20;37.90;;;;;;4955298;28;46766;-68
2023/12/04 07:52:38;;;;;;;13.60;6.00;;;-10.20;37.90;;;;;;4957389;28;46578;-67
2023/12/04 07:55:04;;;;;;;16.83;6.67;;;-10.10;38.00;;;;;;4957477;28;46432;-67
2023/12/04 07:57:30;;;;;;;19.58;9.57;;;-10.00;37.80;;;;;;4953723;28;47739;-67
2023/12/04 07:59:55;;;;;;;18.27;7.57;;;-9.80;37.60;;;;;;4953684;28;46353;-67
2023/12/04 08:02:21;;;;;;;19.47;8.30;;;-9.60;37.20;;;;;;4953030;28;46323;-67
2023/12/04 08:04:47;;;;;;;17.57;7.90;;;-9.40;36.60;;;;;;4954281;28;46462;-67
2023/12/04 08:07:12;;;;;;;18.20;6.60;;;-9.30;36.10;;;;;;4954987;28;46432;-67
2023/12/04 08:09:39;;;;;;;16.67;7.30;;;-9.10;35.20;;;;;;4954750;28;46557;-67
2023/12/04 08:12:05;;;;;;;12.82;7.15;;;-9.10;36.20;;;;;;4953609;28;46431;-67
2023/12/04 08:14:30;;;;;;;13.13;6.22;;;-9.00;36.30;;;;;;4950795;28;46823;-66
2023/12/04 08:16:56;;;;;;;14.40;7.00;;;-8.90;36.40;;;;;;4954162;28;47898;-67
2023/12/04 08:19:23;;;;;;;17.40;6.67;;;-8.50;35.00;;;;;;4956020;28;46596;-66
2023/12/04 08:21:49;;;;;;;17.33;7.20;;;-8.50;36.00;;;;;;4956171;28;46907;-66
2023/12/04 08:24:18;;;;;;;15.57;6.73;;;-8.40;35.60;;;;;;4956659;28;46517;-67
2023/12/04 08:26:46;;;;;;;13.85;7.45;;;-8.30;35.70;;;;;;4955387;28;48838;-67
2023/12/04 08:29:12;;;;;;;21.52;8.23;;;-8.10;35.60;;;;;;4951089;28;46599;-67
2023/12/04 08:31:38;;;;;;;19.90;8.60;;;-8.00;35.30;;;;;;4955977;28;46656;-67
2023/12/04 08:34:04;;;;;;;23.33;8.87;;;-7.90;35.50;;;;;;4955329;28;46538;-67
2023/12/04 08:36:30;;;;;;;17.52;8.43;;;-7.70;35.60;;;;;;4952273;28;48065;-66
2023/12/04 08:38:55;;;;;;;19.10;9.07;;;-7.60;35.30;;;;;;4954753;28;46459;-65
2023/12/04 08:41:21;;;;;;;16.13;8.10;;;-7.50;35.40;;;;;;4954820;28;45870;-67
2023/12/04 08:43:47;;;;;;;16.97;7.37;;;-7.40;35.40;;;;;;4953549;28;46716;-67
2023/12/04 08:46:15;;;;;;;22.70;8.57;;;-7.30;35.50;;;;;;4955547;28;46477;-66
2023/12/04 08:48:41;;;;;;;18.50;8.38;;;-7.20;35.50;;;;;;4955557;28;46389;-67
2023/12/04 08:51:10;;;;;;;24.02;8.68;;;-7.10;35.70;;;;;;4954422;28;46448;-67
2023/12/04 08:53:36;;;;;;;27.20;11.13;;;-7.10;35.40;;;;;;4973071;28;46483;-67
2023/12/04 08:56:02;;;;;;;56.67;18.05;;;-7.00;35.40;;;;;;4956243;28;47808;-67
2023/12/04 08:58:28;;;;;;;18.23;8.07;;;-6.90;35.50;;;;;;4958596;28;46433;-66
2023/12/04 09:00:54;;;;;;;22.63;9.50;;;-6.90;35.50;;;;;;4953351;28;46477;-66
2023/12/04 09:03:20;;;;;;;26.73;10.13;;;-6.80;35.80;;;;;;4954078;28;46378;-66
2023/12/04 09:05:46;;;;;;;17.92;8.32;;;-6.60;35.70;;;;;;4953636;28;46520;-67
2023/12/04 09:08:12;;;;;;;15.70;8.57;;;-6.50;35.80;;;;;;4955079;28;46547;-66
2023/12/04 09:10:38;;;;;;;20.13;9.43;;;-6.40;35.70;;;;;;4953036;28;45930;-66
2023/12/04 09:13:04;;;;;;;16.30;8.20;;;-6.10;35.20;;;;;;4954949;28;46822;-65
2023/12/04 09:15:30;;;;;;;19.15;9.55;;;-5.90;34.80;;;;;;4950922;28;46569;-68
2023/12/04 09:17:55;;;;;;;19.77;9.73;;;-5.60;34.30;;;;;;4954852;28;46426;-67
2023/12/04 09:20:21;;;;;;;23.27;11.70;;;-5.50;34.10;;;;;;4953534;28;46445;-66
2023/12/04 09:22:47;;;;;;;22.37;10.50;;;-5.40;34.30;;;;;;4949360;28;46372;-66
2023/12/04 09:25:12;;;;;;;18.30;9.50;;;-5.30;34.40;;;;;;4952746;28;47852;-66
2023/12/04 09:27:38;;;;;;;20.07;10.83;;;-5.10;34.40;;;;;;4952836;28;46526;-69
2023/12/04 09:30:07;;;;;;;16.97;10.20;;;-4.90;34.40;;;;;;4954134;28;45956;-67
2023/12/04 09:32:33;;;;;;;19.25;9.98;;;-4.80;34.10;;;;;;4945233;28;46496;-67
2023/12/04 09:34:59;;;;;;;21.20;9.37;;;-4.60;33.80;;;;;;4953058;28;47950;-66
2023/12/04 09:37:24;;;;;;;21.77;7.53;;;-4.60;33.60;;;;;;4955364;28;46344;-65
2023/12/04 09:39:50;;;;;;;45.03;13.03;;;-4.50;33.40;;;;;;4954999;28;46758;-67
2023/12/04 09:42:18;;;;;;;13.93;8.07;;;-4.40;33.40;;;;;;4956068;28;46540;-66
2023/12/04 09:44:45;;;;;;;19.70;8.27;;;-4.40;33.70;;;;;;4952445;28;46820;-66
2023/12/04 09:47:11;;;;;;;14.65;7.82;;;-4.20;33.40;;;;;;4952254;28;46551;-67
2023/12/04 09:49:37;;;;;;;14.40;7.60;;;-4.00;31.40;;;;;;4953128;28;46795;-66
2023/12/04 09:52:04;;;;;;;13.75;7.57;;;-4.00;32.50;;;;;;4951570;28;45959;-67
2023/12/04 09:54:30;;;;;;;16.25;8.48;;;-3.70;32.80;;;;;;4952756;28;46576;-65
2023/12/04 09:56:56;;;;;;;16.53;8.10;;;-3.50;32.60;;;;;;4954688;28;46677;-67
2023/12/04 09:59:29;;;;;;;14.85;8.20;;;-3.30;32.90;;;;;;4951900;28;46504;-67
2023/12/04 10:01:54;;;;;;;16.73;8.68;;;-2.80;32.30;;;;;;4954703;28;46577;-67
2023/12/04 10:04:21;;;;;;;14.27;8.60;;;-2.70;31.60;;;;;;4957594;28;47998;-68
2023/12/04 10:06:52;;;;;;;18.35;8.32;;;-2.60;31.60;;;;;;4956590;28;46551;-66
2023/12/04 10:09:18;;;;;;;20.27;10.68;;;-2.60;31.70;;;;;;4971395;28;46400;-68
2023/12/04 10:11:47;;;;;;;19.40;9.98;;;-2.60;31.70;;;;;;4955979;28;46489;-67
2023/12/04 10:14:18;;;;;;;17.10;8.82;;;-2.70;32.20;;;;;;4956704;28;47984;-66
2023/12/04 10:16:44;;;;;;;14.45;7.65;;;-2.70;32.60;;;;;;4959396;28;46403;-67
2023/12/04 10:19:29;;;;;;;19.88;10.00;;;-2.60;32.70;;;;;;4954161;28;46504;-67
2023/12/04 10:21:58;;;;;;;17.85;9.45;;;-2.60;32.70;;;;;;4974733;28;46735;-67
2023/12/04 10:24:42;;;;;;;18.27;8.80;;;-2.50;32.70;;;;;;4956048;28;46681;-67
2023/12/04 10:27:12;;;;;;;17.30;9.23;;;-2.40;32.60;;;;;;4950392;28;46957;-67
2023/12/04 10:29:42;;;;;;;19.10;8.50;;;-2.30;31.30;;;;;;4955324;28;45943;-67
2023/12/04 10:32:08;;;;;;;18.60;9.43;;;-2.20;32.50;;;;;;4971765;28;46542;-67
2023/12/04 10:34:33;;;;;;;23.60;9.20;;;-2.10;32.20;;;;;;4952013;28;47989;-67
2023/12/04 10:36:59;;;;;;;14.43;7.57;;;-2.10;33.10;;;;;;4967847;28;46411;-67
2023/12/04 10:39:28;;;;;;;18.03;8.90;;;-2.10;30.90;;;;;;4954380;28;46389;-67
2023/12/04 10:42:03;;;;;;;22.95;9.60;;;-2.30;30.50;;;;;;4956604;28;46475;-67
2023/12/04 10:44:32;;;;;;;17.73;7.53;;;-2.40;30.00;;;;;;4954148;28;47221;-68
2023/12/04 10:47:01;;;;;;;11.63;7.25;;;-2.40;29.70;;;;;;4952587;28;46447;-67
2023/12/04 10:49:31;;;;;;;16.02;8.35;;;-2.40;28.40;;;;;;4954708;28;46494;-67
2023/12/04 10:51:59;;;;;;;18.67;7.15;;;-2.50;29.10;;;;;;4954441;28;46429;-67
2023/12/04 10:54:26;;;;;;;14.48;7.20;;;-2.60;29.10;;;;;;4957396;28;46721;-67
2023/12/04 10:56:57;;;;;;;14.00;6.95;;;-2.50;29.60;;;;;;4972273;28;46520;-67
2023/12/04 10:59:31;;;;;;;16.67;7.63;;;-2.40;28.40;;;;;;4954577;28;46511;-68
2023/12/04 11:01:59;;;;;;;15.00;6.90;;;-2.40;29.20;;;;;;4951194;28;46457;-68
2023/12/04 11:04:27;;;;;;;18.25;8.85;;;-2.20;29.20;;;;;;4954776;28;47858;-70
2023/12/04 11:06:54;;;;;;;13.60;7.93;;;-2.10;28.90;;;;;;4956558;28;46727;-69
2023/12/04 11:09:26;;;;;;;13.45;8.90;;;-1.90;28.70;;;;;;4957161;28;46110;-68
2023/12/04 11:11:56;;;;;;;14.10;8.60;;;-1.90;28.70;;;;;;4955931;28;47512;-68
2023/12/04 11:14:27;;;;;;;17.10;8.43;;;-1.80;28.90;;;;;;4956239;28;48746;-69
2023/12/04 11:17:00;;;;;;;12.30;7.50;;;-1.90;29.10;;;;;;4956963;28;46691;-69
2023/12/04 11:19:29;;;;;;;16.73;8.07;;;-2.10;29.30;;;;;;4956372;28;46473;-68
2023/12/04 11:21:59;;;;;;;14.10;7.38;;;-2.20;29.30;;;;;;4972409;28;46430;-69
2023/12/04 11:24:25;;;;;;;15.32;8.63;;;-2.30;30.00;;;;;;4971190;28;47732;-69
2023/12/04 11:26:51;;;;;;;18.55;9.35;;;-2.40;30.40;;;;;;4948169;28;46848;-69
2023/12/04 11:29:19;;;;;;;15.85;8.63;;;-2.40;31.00;;;;;;4957639;28;46700;-71
2023/12/04 11:31:46;;;;;;;15.02;8.02;;;-2.30;31.20;;;;;;4955675;28;46905;-69
2023/12/04 11:34:12;;;;;;;15.77;7.50;;;-2.30;31.20;;;;;;4957588;28;47105;-70
2023/12/04 11:36:38;;;;;;;13.32;8.27;;;-2.20;31.40;;;;;;4954741;28;46472;-70
2023/12/04 11:39:12;;;;;;;13.93;7.85;;;-2.10;30.90;;;;;;4940724;28;46609;-69
2023/12/04 11:41:40;;;;;;;13.27;7.35;;;-2.10;31.20;;;;;;4952511;28;46556;-70
2023/12/04 11:44:13;;;;;;;13.70;7.85;;;-2.00;30.60;;;;;;4957267;28;48790;-70
2023/12/04 11:46:38;;;;;;;16.58;9.13;;;-1.90;30.50;;;;;;4970972;28;46412;-69
2023/12/04 11:49:30;;;;;;;12.60;7.67;;;-2.00;30.40;;;;;;4959283;28;46712;-69
2023/12/04 11:52:05;;;;;;;16.98;8.23;;;-1.90;29.70;;;;;;4957933;28;46857;-69
2023/12/04 11:54:59;;;;;;;13.40;7.25;;;-1.70;29.60;;;;;;4971176;28;48061;-69
2023/12/04 11:57:25;;;;;;;16.25;8.90;;;-1.50;29.10;;;;;;4970178;28;46391;-71
2023/12/04 11:59:52;;;;;;;16.80;8.82;;;-1.30;29.00;;;;;;4968190;28;46601;-68
2023/12/04 12:02:18;;;;;;;14.88;8.50;;;-1.10;28.60;;;;;;4956774;28;46417;-70
2023/12/04 12:04:45;;;;;;;16.55;8.27;;;-0.90;28.60;;;;;;4970245;28;46499;-69
2023/12/04 12:07:11;;;;;;;18.02;8.43;;;-0.90;28.50;;;;;;4950786;28;46922;-69
2023/12/04 12:09:37;;;;;;;22.20;11.53;;;-1.10;29.40;;;;;;4953941;28;46520;-69
2023/12/04 12:12:04;;;;;;;28.30;14.35;;;-1.40;29.80;;;;;;4955404;28;46653;-70
2023/12/04 12:14:30;;;;;;;29.67;14.07;;;-1.30;29.80;;;;;;4952823;28;48013;-69
2023/12/04 12:17:00;;;;;;;22.33;11.98;;;-0.90;29.70;;;;;;4950312;28;46416;-70
2023/12/04 12:19:25;;;;;;;25.75;15.68;;;-0.50;28.90;;;;;;4969697;28;46451;-68
2023/12/04 12:21:51;;;;;;;25.67;14.93;;;-0.40;28.40;;;;;;4954872;28;46629;-68
2023/12/04 12:24:18;;;;;;;43.35;22.23;;;-0.60;28.90;;;;;;4955682;28;48687;-70
2023/12/04 12:26:44;;;;;;;18.92;11.35;;;-0.80;29.70;;;;;;4953267;28;46547;-68
2023/12/04 12:29:11;;;;;;;19.80;10.23;;;-1.00;30.00;;;;;;4955906;28;46507;-69